Time,TemperatureF,DewpointF,PressureIn,WindDirection,WindDirectionDegrees,WindSpeedMPH,WindSpeedGustMPH,Humidity,HourlyPrecipIn,Conditions,Clouds,dailyrainin,SolarRadiationWatts/m^2,SoftwareType,DateUTC
2013-02-15 00:01:00,6.0,0.0,-100.00,NNW,335,8.0,19.0,76,-99.99,,,0.00,0.000000,,2013-02-15 07:01:00,
2013-02-15 00:32:00,6.0,0.0,-100.00,WNW,302,9.0,22.0,76,-99.99,,,0.00,0.000000,,2013-02-15 07:32:00,
2013-02-15 00:42:00,6.0,0.0,-100.00,WNW,302,9.0,22.0,76,-99.99,,,0.00,0.000000,,2013-02-15 07:42:00,
2013-02-15 00:52:00,6.0,0.0,-100.00,WNW,302,9.0,22.0,76,-99.99,,,0.00,0.000000,,2013-02-15 07:52:00,
2013-02-15 01:32:00,7.0,2.0,-100.00,WNW,286,9.0,22.0,80,-99.99,,,0.00,0.000000,,2013-02-15 08:32:00,
2013-02-15 02:32:00,8.0,4.0,-100.00,WNW,284,9.0,22.0,83,0.00,,,0.00,0.000000,,2013-02-15 09:32:00,
2013-02-15 02:42:00,8.0,4.0,-100.00,WNW,284,9.0,22.0,83,0.00,,,0.00,0.000000,,2013-02-15 09:42:00,
2013-02-15 02:52:00,8.0,4.0,-100.00,WNW,284,9.0,22.0,83,0.00,,,0.00,0.000000,,2013-02-15 09:52:00,
2013-02-15 03:01:00,8.0,4.0,-100.00,WNW,284,9.0,22.0,83,0.00,,,0.00,0.000000,,2013-02-15 10:01:00,
2013-02-15 03:32:00,8.0,3.0,-100.00,WNW,300,10.0,22.0,81,0.00,,,0.00,0.000000,,2013-02-15 10:32:00,
2013-02-15 03:42:00,8.0,3.0,-100.00,WNW,300,10.0,22.0,81,0.00,,,0.00,0.000000,,2013-02-15 10:42:00,
2013-02-15 03:52:00,8.0,3.0,-100.00,WNW,300,10.0,22.0,81,0.00,,,0.00,0.000000,,2013-02-15 10:52:00,
2013-02-15 04:01:00,8.0,3.0,-100.00,WNW,300,10.0,22.0,81,0.00,,,0.00,0.000000,,2013-02-15 11:01:00,
2013-02-15 04:32:00,8.0,4.0,-100.00,NW,307,8.0,21.0,82,0.00,,,0.00,0.000000,,2013-02-15 11:32:00,
2013-02-15 04:42:00,8.0,4.0,-100.00,NW,307,8.0,21.0,82,0.00,,,0.00,0.000000,,2013-02-15 11:42:00,
2013-02-15 04:52:00,8.0,4.0,-100.00,NW,307,8.0,21.0,82,0.00,,,0.00,0.000000,,2013-02-15 11:52:00,
2013-02-15 05:02:00,8.0,4.0,-100.00,NW,307,8.0,21.0,82,0.00,,,0.00,0.000000,,2013-02-15 12:02:00,
2013-02-15 05:32:00,8.0,4.0,-100.00,NW,319,7.0,18.0,82,0.00,,,0.00,0.000000,,2013-02-15 12:32:00,
2013-02-15 05:42:00,8.0,4.0,-100.00,NW,319,7.0,18.0,82,0.00,,,0.00,0.000000,,2013-02-15 12:42:00,
2013-02-15 05:52:00,8.0,4.0,-100.00,NW,319,7.0,18.0,82,0.00,,,0.00,0.000000,,2013-02-15 12:52:00,
2013-02-15 06:02:00,8.0,4.0,-100.00,NW,319,7.0,18.0,82,0.00,,,0.00,0.000000,,2013-02-15 13:02:00,
2013-02-15 06:32:00,8.0,4.0,-100.00,NNW,339,10.0,21.0,83,0.00,,,-99.99,0.000000,,2013-02-15 13:32:00,
2013-02-15 06:42:00,8.0,4.0,-100.00,NNW,339,10.0,21.0,83,0.00,,,-99.99,0.000000,,2013-02-15 13:42:00,
2013-02-15 06:52:00,8.0,4.0,-100.00,NNW,339,10.0,21.0,83,0.00,,,-99.99,0.000000,,2013-02-15 13:52:00,
2013-02-15 07:01:00,8.0,4.0,-100.00,NNW,339,10.0,21.0,83,0.00,,,-99.99,0.000000,,2013-02-15 14:01:00,
2013-02-15 07:32:00,8.0,4.0,-100.00,NNW,341,8.0,18.0,82,0.00,,,0.00,7.000000,,2013-02-15 14:32:00,
2013-02-15 07:42:00,8.0,4.0,-100.00,NNW,341,8.0,18.0,82,0.00,,,0.00,7.000000,,2013-02-15 14:42:00,
2013-02-15 07:52:00,8.0,4.0,-100.00,NNW,341,8.0,18.0,82,0.00,,,0.00,7.000000,,2013-02-15 14:52:00,
2013-02-15 08:01:00,8.0,4.0,-100.00,NNW,341,8.0,18.0,82,0.00,,,0.00,7.000000,,2013-02-15 15:01:00,
2013-02-15 08:32:00,9.0,5.0,-100.00,NNW,342,10.0,19.0,82,0.00,,,0.00,75.000000,,2013-02-15 15:32:00,
2013-02-15 08:42:00,9.0,5.0,-100.00,NNW,342,10.0,19.0,82,0.00,,,0.00,75.000000,,2013-02-15 15:42:00,
2013-02-15 08:52:00,9.0,5.0,-100.00,NNW,342,10.0,19.0,82,0.00,,,0.00,75.000000,,2013-02-15 15:52:00,
2013-02-15 09:02:00,9.0,5.0,-100.00,NNW,342,10.0,19.0,82,0.00,,,0.00,75.000000,,2013-02-15 16:02:00,
2013-02-15 09:32:00,10.0,6.0,-100.00,North,350,10.0,20.0,82,0.00,,,0.00,140.000000,,2013-02-15 16:32:00,
2013-02-15 09:43:00,10.0,6.0,-100.00,North,350,10.0,20.0,82,0.00,,,0.00,140.000000,,2013-02-15 16:43:00,
2013-02-15 09:52:00,10.0,6.0,-100.00,North,350,10.0,20.0,82,0.00,,,0.00,140.000000,,2013-02-15 16:52:00,
2013-02-15 10:01:00,10.0,6.0,-100.00,North,350,10.0,20.0,82,0.00,,,0.00,140.000000,,2013-02-15 17:01:00,
2013-02-15 10:32:00,12.0,7.0,-100.00,NNW,348,11.0,22.0,80,0.00,,,0.00,282.000000,,2013-02-15 17:32:00,
2013-02-15 10:42:00,12.0,7.0,-100.00,NNW,348,11.0,22.0,80,0.00,,,0.00,282.000000,,2013-02-15 17:42:00,
2013-02-15 10:52:00,12.0,7.0,-100.00,NNW,348,11.0,22.0,80,0.00,,,0.00,282.000000,,2013-02-15 17:52:00,
2013-02-15 11:01:00,12.0,7.0,-100.00,NNW,348,11.0,22.0,80,0.00,,,0.00,282.000000,,2013-02-15 18:01:00,
2013-02-15 11:32:00,15.0,9.0,-100.00,NNW,348,11.0,23.0,76,0.00,,,-99.99,463.000000,,2013-02-15 18:32:00,
2013-02-15 11:42:00,15.0,9.0,-100.00,NNW,348,11.0,23.0,76,0.00,,,-99.99,463.000000,,2013-02-15 18:42:00,
2013-02-15 11:53:00,15.0,9.0,-100.00,NNW,348,11.0,23.0,76,0.00,,,-99.99,463.000000,,2013-02-15 18:53:00,
2013-02-15 12:01:00,15.0,9.0,-100.00,NNW,348,11.0,23.0,76,0.00,,,-99.99,463.000000,,2013-02-15 19:01:00,
2013-02-15 12:32:00,16.0,10.0,-100.00,NNW,340,7.0,22.0,76,0.00,,,0.00,518.000000,,2013-02-15 19:32:00,
2013-02-15 12:42:00,16.0,10.0,-100.00,NNW,340,7.0,22.0,76,0.00,,,0.00,518.000000,,2013-02-15 19:42:00,
2013-02-15 12:52:00,16.0,10.0,-100.00,NNW,340,7.0,22.0,76,0.00,,,0.00,518.000000,,2013-02-15 19:52:00,
2013-02-15 13:01:00,16.0,10.0,-100.00,NNW,340,7.0,22.0,76,0.00,,,0.00,518.000000,,2013-02-15 20:01:00,
2013-02-15 13:32:00,17.0,10.0,-100.00,NNW,340,8.0,22.0,73,0.00,,,0.00,567.000000,,2013-02-15 20:32:00,
2013-02-15 13:42:00,17.0,10.0,-100.00,NNW,340,8.0,22.0,73,0.00,,,0.00,567.000000,,2013-02-15 20:42:00,
2013-02-15 13:52:00,17.0,10.0,-100.00,NNW,340,8.0,22.0,73,0.00,,,0.00,567.000000,,2013-02-15 20:52:00,
2013-02-15 14:02:00,17.0,10.0,-100.00,NNW,340,8.0,22.0,73,0.00,,,0.00,567.000000,,2013-02-15 21:02:00,
2013-02-15 14:32:00,18.0,10.0,-100.00,NW,325,7.0,17.0,71,0.00,,,0.00,541.000000,,2013-02-15 21:32:00,
2013-02-15 14:42:00,18.0,10.0,-100.00,NW,325,7.0,17.0,71,0.00,,,0.00,541.000000,,2013-02-15 21:42:00,
2013-02-15 14:52:00,18.0,10.0,-100.00,NW,325,7.0,17.0,71,0.00,,,0.00,541.000000,,2013-02-15 21:52:00,
2013-02-15 15:02:00,18.0,10.0,-100.00,NW,325,7.0,17.0,71,0.00,,,0.00,541.000000,,2013-02-15 22:02:00,
2013-02-15 15:32:00,17.0,9.0,-100.00,NNW,327,7.0,17.0,69,0.00,,,0.00,454.000000,,2013-02-15 22:32:00,
2013-02-15 15:42:00,17.0,9.0,-100.00,NNW,327,7.0,17.0,69,0.00,,,0.00,454.000000,,2013-02-15 22:42:00,
2013-02-15 15:52:00,17.0,9.0,-100.00,NNW,327,7.0,17.0,69,0.00,,,0.00,454.000000,,2013-02-15 22:52:00,
2013-02-15 16:02:00,17.0,9.0,-100.00,NNW,327,7.0,17.0,69,0.00,,,0.00,454.000000,,2013-02-15 23:02:00,
2013-02-15 16:32:00,14.0,8.0,-100.00,West,273,6.0,18.0,78,0.00,,,0.00,219.000000,,2013-02-15 23:32:00,
2013-02-15 16:42:00,14.0,8.0,-100.00,West,273,6.0,18.0,78,0.00,,,0.00,219.000000,,2013-02-15 23:42:00,
2013-02-15 16:52:00,14.0,8.0,-100.00,West,273,6.0,18.0,78,0.00,,,0.00,219.000000,,2013-02-15 23:52:00,
2013-02-15 17:02:00,14.0,8.0,-100.00,West,273,6.0,18.0,78,0.00,,,0.00,219.000000,,2013-02-16 00:02:00,
2013-02-15 17:32:00,13.0,7.0,-100.00,WNW,302,6.0,16.0,77,0.00,,,0.00,50.000000,,2013-02-16 00:32:00,
2013-02-15 17:42:00,13.0,7.0,-100.00,WNW,302,6.0,16.0,77,0.00,,,0.00,50.000000,,2013-02-16 00:42:00,
2013-02-15 17:52:00,13.0,7.0,-100.00,WNW,302,6.0,16.0,77,0.00,,,0.00,50.000000,,2013-02-16 00:52:00,
2013-02-15 18:02:00,13.0,7.0,-100.00,WNW,302,6.0,16.0,77,0.00,,,0.00,50.000000,,2013-02-16 01:02:00,
2013-02-15 18:32:00,13.0,8.0,-100.00,NNW,329,9.0,17.0,81,0.00,,,0.00,3.000000,,2013-02-16 01:32:00,
2013-02-15 18:42:00,13.0,8.0,-100.00,NNW,329,9.0,17.0,81,0.00,,,0.00,3.000000,,2013-02-16 01:42:00,
2013-02-15 18:52:00,13.0,8.0,-100.00,NNW,329,9.0,17.0,81,0.00,,,0.00,3.000000,,2013-02-16 01:52:00,
2013-02-15 19:01:00,13.0,8.0,-100.00,NNW,329,9.0,17.0,81,0.00,,,0.00,3.000000,,2013-02-16 02:01:00,
2013-02-15 19:32:00,13.0,9.0,-100.00,West,268,9.0,19.0,82,0.00,,,0.00,0.000000,,2013-02-16 02:32:00,
2013-02-15 19:42:00,13.0,9.0,-100.00,West,268,9.0,19.0,82,0.00,,,0.00,0.000000,,2013-02-16 02:42:00,
2013-02-15 19:52:00,13.0,9.0,-100.00,West,268,9.0,19.0,82,0.00,,,0.00,0.000000,,2013-02-16 02:52:00,
2013-02-15 20:01:00,13.0,9.0,-100.00,West,268,9.0,19.0,82,0.00,,,0.00,0.000000,,2013-02-16 03:01:00,
2013-02-15 20:32:00,14.0,10.0,-100.00,West,265,9.0,20.0,83,0.00,,,0.00,0.000000,,2013-02-16 03:32:00,
2013-02-15 20:42:00,14.0,10.0,-100.00,West,265,9.0,20.0,83,0.00,,,0.00,0.000000,,2013-02-16 03:42:00,
2013-02-15 20:52:00,14.0,10.0,-100.00,West,265,9.0,20.0,83,0.00,,,0.00,0.000000,,2013-02-16 03:52:00,
2013-02-15 21:01:00,14.0,10.0,-100.00,West,265,9.0,20.0,83,0.00,,,0.00,0.000000,,2013-02-16 04:01:00,
2013-02-15 21:32:00,17.0,12.0,-100.00,WNW,293,11.0,31.0,79,0.00,,,0.00,0.000000,,2013-02-16 04:32:00,
2013-02-15 21:42:00,17.0,12.0,-100.00,WNW,293,11.0,31.0,79,0.00,,,0.00,0.000000,,2013-02-16 04:42:00,
2013-02-15 21:52:00,17.0,12.0,-100.00,WNW,293,11.0,31.0,79,0.00,,,0.00,0.000000,,2013-02-16 04:52:00,
2013-02-15 22:01:00,17.0,12.0,-100.00,WNW,293,11.0,31.0,79,0.00,,,0.00,0.000000,,2013-02-16 05:01:00,
2013-02-15 22:32:00,19.0,14.0,-100.00,WNW,291,12.0,30.0,82,0.00,,,0.00,0.000000,,2013-02-16 05:32:00,
2013-02-15 22:42:00,19.0,14.0,-100.00,WNW,291,12.0,30.0,82,0.00,,,0.00,0.000000,,2013-02-16 05:42:00,
2013-02-15 22:52:00,19.0,14.0,-100.00,WNW,291,12.0,30.0,82,0.00,,,0.00,0.000000,,2013-02-16 05:52:00,
2013-02-15 23:02:00,19.0,14.0,-100.00,WNW,291,12.0,30.0,82,0.00,,,0.00,0.000000,,2013-02-16 06:02:00,
2013-02-15 23:32:00,20.0,15.0,-100.00,WNW,288,13.0,31.0,81,0.00,,,0.00,0.000000,,2013-02-16 06:32:00,
2013-02-15 23:42:00,20.0,15.0,-100.00,WNW,288,13.0,31.0,81,0.00,,,0.00,0.000000,,2013-02-16 06:42:00,
2013-02-15 23:52:00,20.0,15.0,-100.00,WNW,288,13.0,31.0,81,0.00,,,0.00,0.000000,,2013-02-16 06:52:00,